Погода Елёнкана 2 недели

Подляское воеводство, Польша

19 - 31 июля
  • 19июля
    Сегодня
    +13°
    +25°
    Ясно и безоблачно
    ВремяПогодаТемператураВлажностьДавлениеВетер, м/сВероятность осадков
    02:00Облачно с прояснениями+16°C78 %750 мм2.4 м/с2 %
    05:00Практически безоблачно+15°C86 %750 мм2.5 м/с2 %
    08:00Ясно и безоблачно+18°C75 %751 мм2.4 м/с2 %
    11:00Ясно и безоблачно+22°C58 %750 мм3.3 м/с2 %
    14:00Ясно и безоблачно+24°C49 %749 мм4.2 м/с2 %
    17:00Ясно и безоблачно+25°C48 %748 мм4.0 м/с2 %
    20:00Ясно и безоблачно+22°C59 %748 мм2.3 м/с2 %
    23:00Ясно и безоблачно+18°C67 %748 мм3.1 м/с2 %
  • 20июля
    Суббота
    +14°
    +26°
    Ясно и безоблачно
    ВремяПогодаТемператураВлажностьДавлениеВетер, м/сВероятность осадков
    02:00Ясно и безоблачно+15°C78 %747 мм1.9 м/с2 %
    05:00Ясно и безоблачно+13°C89 %747 мм1.5 м/с2 %
    08:00Ясно и безоблачно+18°C70 %746 мм1.9 м/с2 %
    11:00Ясно и безоблачно+22°C47 %746 мм2.6 м/с2 %
    14:00Ясно и безоблачно+24°C41 %745 мм2.4 м/с2 %
    17:00Ясно и безоблачно+25°C40 %744 мм2.1 м/с2 %
    20:00Ясно и безоблачно+21°C66 %744 мм1.8 м/с2 %
    23:00Ясно и безоблачно+19°C62 %743 мм1.9 м/с2 %
  • 21июля
    Воскресенье
    +16°
    +28°
    Небольшая облачность
    ВремяПогодаТемператураВлажностьДавлениеВетер, м/сВероятность осадков
    02:00Практически безоблачно+15°C79 %743 мм1.4 м/с2 %
    05:00Ясно и безоблачно+15°C85 %743 мм0.9 м/с2 %
    08:00Ясно и безоблачно+20°C62 %743 мм0.7 м/с2 %
    11:00Практически безоблачно+25°C43 %743 мм0.9 м/с2 %
    14:00Небольшая облачность+26°C38 %742 мм1.2 м/с9 %
    17:00Облачно с прояснениями+27°C39 %742 мм1.6 м/с6 %
    20:00Практически безоблачно+25°C47 %742 мм0.8 м/с2 %
    23:00Облачно с прояснениями+20°C63 %742 мм2.0 м/с2 %
  • 22июля
    Понедельник
    +17°
    +29°
    Практически безоблачно
    ВремяПогодаТемператураВлажностьДавлениеВетер, м/сВероятность осадков
    02:00Ясно и безоблачно+18°C68 %741 мм2.1 м/с2 %
    05:00Ясно и безоблачно+17°C75 %741 мм2.0 м/с2 %
    08:00Ясно и безоблачно+21°C66 %742 мм1.0 м/с2 %
    11:00Практически безоблачно+27°C39 %742 мм0.7 м/с4 %
    14:00Практически безоблачно+29°C36 %742 мм0.9 м/с7 %
    17:00Практически безоблачно+29°C36 %742 мм0.8 м/с11 %
    20:00Практически безоблачно+25°C54 %742 мм1.7 м/с22 %
    23:00Ясно и безоблачно+21°C63 %742 мм2.7 м/с21 %
Мы используем cookies
Соглашаюсь